Aviation Digital Data Service (ADDS)

Output produced by METARs form (0117 UTC 16 January 2019)
found at http://www.aviationweather.gov/metar/data/
 
KHBG 152323Z 1600/1624 28004KT P6SM SKC
       
KHDN 152344Z 1600/1624 10008KT P6SM OVC060 
     FM160300 13005KT P6SM SCT030 OVC050 
     FM160600 11006KT P6SM VCSH BKN030 OVC050 
     FM161200 28006KT 3SM -SHSN BR BKN015 OVC035
       
KHIE 152320Z 1600/1624 00000KT P6SM OVC015 
     FM161000 VRB02KT P6SM BKN050 
     FM161700 25009G17KT P6SM -SHSN OVC035 
     TEMPO 1618/1622 2SM -SHSN OVC025
       
TAF KHIF 152102Z 1521/1703 11009KT 9999 BKN050 BKN070 620509 QNH3001INS 
     BECMG 1603/1604 12009KT 6000 -SN BKN010 OVC020 620109 QNH2999INS 
     TEMPO 1610/1616 0800 SN OVC005 620059 
     BECMG 1616/1617 12009KT 9999 VCSH BKN020 OVC030 QNH2997INS TX00/1523Z
TNM10/1613Z
       
KHIO 152320Z 1600/1624 28006KT P6SM SCT100 BKN200 
     FM160500 VRB03KT P6SM OVC090 
     FM161800 07006KT P6SM -RA OVC060
       
KHKS 152323Z 1600/1624 00000KT P6SM SKC 
     FM161400 20004KT P6SM SCT050
       
KHKY 152322Z 1600/1624 VRB03KT P6SM SKC 
     FM161600 25003KT P6SM SKC
       
KHLG 160000Z 1600/1624 24010KT P6SM VCSH OVC015 
     FM160300 24010KT 5SM BR VCSH OVC008 
     FM160700 23010G18KT 3SM -FZDZSN BR OVC005 
     FM161300 25010G18KT 6SM -SHSN OVC015 
     PROB30 1613/1616 -FZDZ OVC008 
     FM162200 28010G18KT P6SM OVC025
       
KHLN 152337Z 1600/1624 VRB03KT P6SM SCT080 BKN150 
     FM161500 VRB05KT P6SM FEW120 SCT180
       
TAF KHMN 160105Z 1601/1707 VRB06KT 9999 FEW250 QNH3016INS 
     BECMG 1605/1606 VRB06KT 9999 SCT100 BKN210 QNH3020INS 
     BECMG 1615/1616 VRB06KT 9999 BKN080 QNH3022INS 
     BECMG 1617/1618 VRB06KT 9999 FEW080 QNH3023INS TX17/1621Z TN05/1613Z
       
KHND 152320Z 1600/1624 16006KT 4SM -SHRA BR FEW005 BKN020 
     TEMPO 1600/1602 3SM BR OVC008 
     FM160900 20008KT P6SM OVC050 
     FM161600 19007KT P6SM SCT050 BKN200
       
KHOB 152330Z 1600/1624 19009KT P6SM FEW250
       
KHON 152324Z 1600/1624 35012G17KT P6SM SCT007 OVC015 
     FM160500 01011KT P6SM BKN020 
     FM160700 01010KT P6SM FEW020 SCT200 
     FM161900 10006KT P6SM BKN050
       
TAF KHOP 160000Z 1600/1706 21009KT 9999 OVC020 620203 QNH3022INS 
     BECMG 1610/1611 24006KT 9000 BR OVC010 QNH3023INS 
     BECMG 1614/1615 21006KT 9999 NSW OVC015 QNH3021INS TX09/1620Z TN01/1611Z
       
KHOT 152339Z 1600/1624 14003KT P6SM BKN250 
     FM160600 24003KT P6SM SCT250 
     FM161200 14005KT P6SM OVC025
       
KHOU 152325Z 1600/1624 VRB03KT P6SM OVC060 
     FM160800 00000KT P6SM OVC030 
     FM161200 VRB03KT P6SM OVC020 
     FM161600 VRB04KT P6SM VCSH OVC015
       
KHPN 152339Z 1600/1624 VRB03KT P6SM FEW250 
     FM160900 27004KT P6SM FEW250 
     FM161300 27008KT P6SM FEW250 
     FM161500 27011G19KT P6SM BKN040 
     FM162200 28008KT P6SM BKN100 AMD NOT SKED
       
KHQM 152340Z 1600/1624 06012KT P6SM BKN120 OVC200 
     FM161100 06011KT P6SM OVC090 
     FM161800 12012KT 4SM -RA OVC050
       
KHRL 152337Z 1600/1624 36008KT 3SM BR OVC004 
     FM160800 28010KT 2SM -RA BR OVC004 
     FM161600 29007KT P6SM OVC020
       
KHRO 152339Z 1600/1624 18004KT P6SM SKC 
     FM161500 16005KT P6SM SCT250
       
TAF KHST 160000Z 1600/1706 33009KT 9999 BKN030 QNH3009INS 
     BECMG 1607/1608 34012G18KT 9999 FEW012 QNH3012INS 
     BECMG 1613/1614 35012KT 9999 FEW015 QNH3015INS 
     BECMG 1617/1618 35009KT 9999 FEW025 SCT150 QNH3013INS TX21/1620Z TN11/1612Z
       
KHSV 152324Z 1600/1624 VRB03KT P6SM OVC020 
     FM160300 VRB02KT P6SM SCT250 
     FM161400 25005KT P6SM SCT250
       
KHTS 152339Z 1600/1624 23003KT P6SM OVC020 
     FM160300 23003KT P6SM OVC015 
     FM161500 23005KT 4SM -DZ OVC008 
     FM161800 25004KT 4SM -DZ OVC010
       
KHUF 152336Z 1600/1624 23009KT 6SM BR OVC008 
     FM160800 23007KT 4SM -FZDZ BR OVC008 
     FM161200 26005KT 4SM -FZDZ OVC003 
     FM161400 VRB04KT P6SM BKN008
       
KHUM 152323Z 1600/1624 VRB03KT P6SM SCT250 
     FM161200 VRB04KT P6SM FEW120 SCT250
       
KHUT 152339Z 1600/1624 18005KT P6SM FEW010 
     FM160300 27003KT 3SM BR SCT010 
     FM160500 30003KT 1SM BR BKN005 
     FM160800 35004KT 3/4SM BR OVC004 
     FM161200 01005KT 3/4SM BR BKN005 
     FM161600 07006KT 5SM BR BKN008
       
KHVR 152337Z 1600/1624 07014KT P6SM FEW070 SCT150 
     FM161100 VRB06KT P6SM SCT025 BKN040 
     FM161800 05005KT P6SM BKN015
       
KHYA 152322Z 1600/1624 VRB03KT P6SM BKN200 
     FM160200 VRB03KT P6SM SKC 
     FM161500 23010G22KT P6SM SCT250 
     FM161800 24013G26KT P6SM FEW025 
     FM162100 25010G22KT P6SM SKC
       
KHYR 152347Z 1600/1624 29008G19KT 4SM -FZDZ BR OVC008 
     FM160300 32010G20KT P6SM OVC012 
     FM160700 33008KT P6SM SCT020 
     FM161500 32005KT P6SM FEW250
       
KHYS 152342Z 1600/1624 23005KT P6SM FEW250 
     FM160900 01005KT P6SM BKN060 
     FM161100 03006KT P6SM BKN020 
     FM161200 03007KT P6SM BKN001 
     FM161700 07007KT P6SM OVC003
       
KHUL 152334Z 1600/1624 VRB03KT P6SM SCT035 
     FM160900 18006KT P6SM OVC025 
     FM161400 18010KT 2SM -SN BR OVC015 
     FM161600 20010G18KT P6SM VCSH OVC015 
     FM162200 27010G18KT 3SM -SHSN SCT015 OVC025